WXM80 ListenWXM80 Stop

You find our weather info also at:

UK Metoffice

WeatherCloud

Weather Underground

Northeastern Weather Network

AWEKAS

Citizen Weather Observer Program (CWOP)

HAMweather, WeatherForYou, PWS Weather


Weather Underground History page Text

Daily Summary for March 19, 2017 Units:  Metric    English   Both
« Previous Day
Next Day »
Daily Weekly Monthly Yearly Custom
  High: Low: Average:
Temperature: 7.7 °C 0.1 °C 3.3 °C
Dew Point: 1.1 °C -3.2 °C -0.9 °C
Humidity: 84 % 61 % 74 %
Wind Speed: 22.5 km/h 0 km/h 10.8 km/h
Wind Gust: 33.3 km/h - -
Wind:- - ENE
Pressure: 1021.6 hPa 1018.2 hPa -
Precipitation: 0 mm    
Historical Graphs
 
 
Tabular Data for March 19, 2017
Time Temperature Dew Point Pressure Wind Wind Speed Wind Gust Humidity Rainfall Rate (Hourly)
00:01 2.2 °C -0.8 °C 1020.5 hPa ENE 20.6 km/h 25.9 km/h 81 % 0 mm
00:06 2.2 °C -0.8 °C 1020.9 hPa ENE 20.9 km/h 29.6 km/h 81 % 0 mm
00:11 2.2 °C -0.6 °C 1020.9 hPa ENE 18 km/h 22.2 km/h 82 % 0 mm
00:16 2.1 °C -0.9 °C 1020.9 hPa ENE 17.2 km/h 31.5 km/h 81 % 0 mm
00:21 2 °C -0.9 °C 1020.9 hPa ENE 18.3 km/h 25.9 km/h 81 % 0 mm
00:26 2 °C -0.8 °C 1020.9 hPa ENE 14.8 km/h 20.4 km/h 82 % 0 mm
00:31 1.9 °C -0.8 °C 1020.9 hPa NE 21.6 km/h 31.5 km/h 82 % 0 mm
00:36 1.9 °C -0.8 °C 1020.5 hPa East 18.2 km/h 27.8 km/h 82 % 0 mm
00:41 1.8 °C -0.7 °C 1020.5 hPa ENE 17.7 km/h 25.7 km/h 83 % 0 mm
00:46 1.8 °C -0.9 °C 1020.5 hPa NE 16.4 km/h 24.1 km/h 82 % 0 mm
00:51 1.7 °C -0.8 °C 1020.5 hPa NE 18.7 km/h 25.9 km/h 83 % 0 mm
00:56 1.7 °C -1.1 °C 1020.5 hPa ENE 18.5 km/h 27.8 km/h 82 % 0 mm
01:01 1.6 °C -1.1 °C 1020.5 hPa ENE 19 km/h 25.7 km/h 82 % 0 mm
01:06 1.6 °C -0.9 °C 1020.2 hPa ENE 20.4 km/h 29.6 km/h 83 % 0 mm
01:11 1.6 °C -1 °C 1020.2 hPa NE 12.6 km/h 20.9 km/h 83 % 0 mm
01:16 1.5 °C -0.9 °C 1020.2 hPa ENE 16.4 km/h 25.9 km/h 84 % 0 mm
01:21 1.4 °C -0.9 °C 1019.9 hPa NE 17.1 km/h 25.9 km/h 84 % 0 mm
01:26 1.4 °C -1.1 °C 1019.9 hPa NE 17.1 km/h 24.1 km/h 83 % 0 mm
01:31 1.4 °C -1.1 °C 1019.9 hPa North 17.4 km/h 27.8 km/h 83 % 0 mm
01:36 1.4 °C -1.1 °C 1019.9 hPa ENE 19.6 km/h 24.1 km/h 83 % 0 mm
01:41 1.5 °C -0.9 °C 1019.9 hPa ENE 21.1 km/h 25.9 km/h 84 % 0 mm
01:47 1.5 °C -0.9 °C 1019.5 hPa ENE 18.7 km/h 25.9 km/h 84 % 0 mm
01:52 1.5 °C -0.9 °C 1019.9 hPa NE 14.8 km/h 25.9 km/h 84 % 0 mm
01:57 1.5 °C -1.1 °C 1019.9 hPa East 16.7 km/h 25.9 km/h 83 % 0 mm
02:02 1.6 °C -1 °C 1019.9 hPa ENE 16.1 km/h 27.8 km/h 83 % 0 mm
02:07 1.6 °C -1 °C 1019.9 hPa NE 20.6 km/h 25.9 km/h 83 % 0 mm
02:12 1.6 °C -1.1 °C 1019.9 hPa NE 18.8 km/h 25.9 km/h 82 % 0 mm
02:17 1.7 °C -0.9 °C 1019.9 hPa East 17.2 km/h 24.1 km/h 83 % 0 mm
02:22 1.8 °C -0.8 °C 1019.9 hPa NE 16.6 km/h 27.8 km/h 83 % 0 mm
02:27 1.8 °C -0.9 °C 1019.9 hPa ENE 20.8 km/h 29.6 km/h 82 % 0 mm
02:32 1.8 °C -0.9 °C 1019.9 hPa NE 18.3 km/h 25.7 km/h 82 % 0 mm
02:37 1.9 °C -0.8 °C 1019.9 hPa East 21.2 km/h 33.3 km/h 82 % 0 mm
02:42 1.9 °C -1.1 °C 1019.9 hPa ENE 21.6 km/h 25.9 km/h 81 % 0 mm
02:47 1.9 °C -1.1 °C 1019.5 hPa NE 22.5 km/h 31.5 km/h 81 % 0 mm
02:53 1.9 °C -1.1 °C 1019.5 hPa NE 18 km/h 27.8 km/h 81 % 0 mm
02:58 1.9 °C -1.1 °C 1019.5 hPa ENE 20.4 km/h 31.5 km/h 81 % 0 mm
03:03 1.9 °C -1.1 °C 1019.5 hPa ENE 15.4 km/h 27.8 km/h 81 % 0 mm
03:08 1.9 °C -1.1 °C 1019.5 hPa East 20.8 km/h 27.8 km/h 81 % 0 mm
03:13 1.9 °C -1.1 °C 1019.5 hPa ENE 20 km/h 27.8 km/h 81 % 0 mm
03:18 1.9 °C -1.1 °C 1019.5 hPa ENE 21.7 km/h 31.5 km/h 81 % 0 mm
03:23 1.9 °C -1 °C 1019.9 hPa ENE 15.8 km/h 22.2 km/h 81 % 0 mm
03:28 2 °C -0.9 °C 1019.9 hPa NE 14.3 km/h 22.2 km/h 81 % 0 mm
03:33 2 °C -0.9 °C 1020.2 hPa ENE 15.6 km/h 20.4 km/h 81 % 0 mm
03:38 2 °C -1.1 °C 1020.2 hPa ENE 16.7 km/h 20.9 km/h 80 % 0 mm
03:43 2.1 °C -0.9 °C 1020.2 hPa ENE 9.7 km/h 16.7 km/h 81 % 0 mm
03:48 2 °C -0.9 °C 1020.2 hPa ENE 13.4 km/h 25.7 km/h 81 % 0 mm
03:53 2 °C -1.1 °C 1019.9 hPa ENE 12.4 km/h 20.4 km/h 80 % 0 mm
03:58 2 °C -1.1 °C 1019.9 hPa NNE 10.9 km/h 16.7 km/h 80 % 0 mm
04:03 1.9 °C -1 °C 1020.2 hPa NE 14.5 km/h 20.4 km/h 81 % 0 mm
04:08 1.9 °C -1 °C 1020.2 hPa ENE 9.8 km/h 16.7 km/h 81 % 0 mm
04:13 1.9 °C -1 °C 1020.2 hPa ENE 15.6 km/h 25.9 km/h 81 % 0 mm
04:18 1.9 °C -1.2 °C 1020.2 hPa NE 12.6 km/h 22.2 km/h 80 % 0 mm
04:23 1.9 °C -1 °C 1020.2 hPa NE 8.2 km/h 11.1 km/h 81 % 0 mm
04:28 1.9 °C -1.1 °C 1020.2 hPa NE 8 km/h 13 km/h 81 % 0 mm
04:33 1.9 °C -1.1 °C 1020.2 hPa NE 14 km/h 18.5 km/h 81 % 0 mm
04:39 1.9 °C -1.1 °C 1020.2 hPa NNE 8.7 km/h 16.7 km/h 81 % 0 mm
04:44 1.8 °C -1.1 °C 1020.2 hPa NE 10.1 km/h 16.1 km/h 81 % 0 mm
04:49 1.8 °C -1.1 °C 1020.2 hPa NE 8.7 km/h 16.7 km/h 81 % 0 mm
04:54 1.8 °C -1.1 °C 1020.2 hPa NNE 12.4 km/h 22.2 km/h 81 % 0 mm
04:59 1.8 °C -1.1 °C 1020.2 hPa NNE 12.6 km/h 24.1 km/h 81 % 0 mm
05:04 1.8 °C -1.1 °C 1020.2 hPa NNE 14 km/h 24.1 km/h 81 % 0 mm
05:09 1.7 °C -1.2 °C 1020.2 hPa NNE 19.5 km/h 25.9 km/h 81 % 0 mm
05:14 1.7 °C -1.2 °C 1020.2 hPa NNE 17.1 km/h 25.9 km/h 81 % 0 mm
05:19 1.7 °C -1.2 °C 1020.2 hPa NE 14.5 km/h 22.2 km/h 81 % 0 mm
05:24 1.6 °C -1.3 °C 1020.2 hPa NE 17.4 km/h 29.6 km/h 81 % 0 mm
05:29 1.6 °C -1.5 °C 1020.2 hPa NE 16.6 km/h 25.9 km/h 80 % 0 mm
05:35 1.6 °C -1.5 °C 1020.5 hPa NE 15.6 km/h 24.1 km/h 80 % 0 mm
05:40 1.5 °C -1.4 °C 1020.2 hPa NE 16.9 km/h 27.8 km/h 81 % 0 mm
05:45 1.5 °C -1.4 °C 1020.5 hPa NNE 13.5 km/h 18.5 km/h 81 % 0 mm
05:50 1.5 °C -1.6 °C 1020.2 hPa NE 19.5 km/h 29.6 km/h 80 % 0 mm
05:55 1.5 °C -1.6 °C 1020.5 hPa NE 14 km/h 24.1 km/h 80 % 0 mm
06:00 1.5 °C -1.6 °C 1020.5 hPa North 13.5 km/h 20.4 km/h 80 % 0 mm
06:05 1.4 °C -1.6 °C 1020.5 hPa NNE 16.4 km/h 19.3 km/h 80 % 0 mm
06:10 1.4 °C -1.6 °C 1020.5 hPa North 13.5 km/h 18.5 km/h 80 % 0 mm
06:15 1.4 °C -1.4 °C 1020.5 hPa NE 13.8 km/h 20.4 km/h 81 % 0 mm
06:20 1.4 °C -1.4 °C 1020.5 hPa NNE 14.6 km/h 25.9 km/h 81 % 0 mm
06:25 1.4 °C -1.4 °C 1020.5 hPa NE 12.9 km/h 16.7 km/h 81 % 0 mm
06:30 1.4 °C -1.4 °C 1020.5 hPa NNE 10.9 km/h 22.2 km/h 81 % 0 mm
06:35 1.4 °C -1.4 °C 1020.5 hPa NNE 19.3 km/h 29.6 km/h 81 % 0 mm
06:40 1.4 °C -1.4 °C 1020.9 hPa NNE 15.3 km/h 27.8 km/h 81 % 0 mm
06:46 1.4 °C -1.4 °C 1020.9 hPa North 17.7 km/h 31.5 km/h 81 % 0 mm
06:51 1.4 °C -1.6 °C 1020.5 hPa NNE 15.6 km/h 33.3 km/h 80 % 0 mm
06:56 1.4 °C -1.4 °C 1020.5 hPa NE 14.3 km/h 24.1 km/h 81 % 0 mm
07:01 1.4 °C -1.4 °C 1020.5 hPa ENE 15.4 km/h 20.4 km/h 81 % 0 mm
07:06 1.4 °C -1.4 °C 1020.5 hPa NNE 17.4 km/h 25.9 km/h 81 % 0 mm
07:11 1.4 °C -1.4 °C 1020.5 hPa NE 14 km/h 24.1 km/h 81 % 0 mm
07:16 1.4 °C -1.4 °C 1020.9 hPa NE 10.9 km/h 25.9 km/h 81 % 0 mm
07:21 1.4 °C -1.4 °C 1020.9 hPa ENE 12.1 km/h 22.2 km/h 81 % 0 mm
07:26 1.4 °C -1.4 °C 1020.9 hPa NNE 16.9 km/h 24.1 km/h 81 % 0 mm
07:31 1.4 °C -1.4 °C 1020.9 hPa NNE 15.9 km/h 25.9 km/h 81 % 0 mm
07:36 1.4 °C -1.6 °C 1020.9 hPa NE 14.2 km/h 31.5 km/h 80 % 0 mm
07:41 1.4 °C -1.4 °C 1020.9 hPa NNE 10 km/h 22.2 km/h 81 % 0 mm
07:46 1.4 °C -1.4 °C 1020.9 hPa NNE 12.1 km/h 20.9 km/h 81 % 0 mm
07:51 1.4 °C -1.4 °C 1020.5 hPa NE 13 km/h 19.3 km/h 81 % 0 mm
07:56 1.4 °C -1.4 °C 1020.5 hPa ENE 13 km/h 19.3 km/h 81 % 0 mm
08:01 1.5 °C -1.4 °C 1020.5 hPa NE 14.2 km/h 20.4 km/h 81 % 0 mm
08:06 1.5 °C -1.4 °C 1020.5 hPa NNE 15.9 km/h 25.7 km/h 81 % 0 mm
08:11 1.5 °C -1.6 °C 1020.5 hPa ENE 12.7 km/h 18.5 km/h 80 % 0 mm
08:16 1.6 °C -1.5 °C 1020.5 hPa NNW 10.6 km/h 20.9 km/h 80 % 0 mm
08:21 1.6 °C -1.5 °C 1020.5 hPa NE 13.8 km/h 25.9 km/h 80 % 0 mm
08:26 1.6 °C -1.7 °C 1020.5 hPa NNE 15.3 km/h 20.9 km/h 79 % 0 mm
08:31 1.7 °C -1.4 °C 1020.5 hPa NNE 13.4 km/h 20.4 km/h 80 % 0 mm
08:36 1.7 °C -1.6 °C 1020.5 hPa NE 12.6 km/h 18.5 km/h 79 % 0 mm
08:41 1.8 °C -1.5 °C 1020.5 hPa NNE 17.4 km/h 31.5 km/h 79 % 0 mm
08:46 1.8 °C -1.7 °C 1020.5 hPa NNE 16.3 km/h 24.1 km/h 78 % 0 mm
08:51 1.9 °C -1.5 °C 1020.5 hPa NE 16.1 km/h 25.9 km/h 78 % 0 mm
08:52 1.9 °C -1.5 °C 1020.5 hPa NE 17.9 km/h 25.9 km/h 78 % 0 mm
08:57 2.1 °C -1.3 °C 1020.5 hPa NNE 15.3 km/h 24.1 km/h 78 % 0 mm
09:02 2.2 °C -1.4 °C 1020.5 hPa NNE 13.7 km/h 20.4 km/h 77 % 0 mm
09:07 2.2 °C -1.4 °C 1020.5 hPa NE 20 km/h 29.6 km/h 77 % 0 mm
09:12 2.2 °C -1.4 °C 1020.5 hPa NNE 15.6 km/h 24.1 km/h 77 % 0 mm
09:17 2.3 °C -1.1 °C 1020.5 hPa NNE 15 km/h 25.9 km/h 78 % 0 mm
09:22 2.5 °C -1.1 °C 1020.5 hPa NE 15.3 km/h 25.9 km/h 77 % 0 mm
09:27 2.7 °C -0.9 °C 1020.5 hPa NE 11.1 km/h 20.4 km/h 77 % 0 mm
09:32 2.9 °C -0.9 °C 1020.9 hPa NE 12.4 km/h 22.2 km/h 76 % 0 mm
09:37 3.1 °C -0.9 °C 1020.9 hPa NNE 16.1 km/h 24.1 km/h 75 % 0 mm
09:42 3.3 °C -0.7 °C 1020.9 hPa ENE 15.1 km/h 18.5 km/h 75 % 0 mm
09:43 3.3 °C -0.7 °C 1020.9 hPa ENE 17.9 km/h 25.7 km/h 75 % 0 mm
09:48 3.4 °C -0.8 °C 1020.9 hPa NE 14.2 km/h 22.2 km/h 74 % 0 mm
09:53 3.6 °C -0.6 °C 1021.2 hPa NE 17.7 km/h 27.8 km/h 74 % 0 mm
09:58 3.7 °C -0.7 °C 1021.2 hPa NE 18.5 km/h 24.1 km/h 73 % 0 mm
10:04 3.8 °C -0.6 °C 1021.2 hPa NE 16.4 km/h 22.2 km/h 73 % 0 mm
10:09 4 °C -0.4 °C 1021.2 hPa NE 15.1 km/h 22.2 km/h 73 % 0 mm
10:14 4.1 °C -0.6 °C 1021.2 hPa NNE 18.3 km/h 24.1 km/h 72 % 0 mm
10:19 4.2 °C -0.6 °C 1021.2 hPa NE 17.7 km/h 29.6 km/h 71 % 0 mm
10:24 4.2 °C -0.6 °C 1021.6 hPa NE 13.8 km/h 20.4 km/h 71 % 0 mm
10:29 4.2 °C -0.6 °C 1021.6 hPa NNE 10.8 km/h 18.5 km/h 71 % 0 mm
10:34 4.4 °C -0.2 °C 1021.6 hPa ENE 9.8 km/h 14.8 km/h 72 % 0 mm
10:39 4.8 °C 0.2 °C 1021.2 hPa NNE 12.4 km/h 19.3 km/h 72 % 0 mm
10:44 5.3 °C 0.2 °C 1021.2 hPa NNE 10 km/h 18.5 km/h 70 % 0 mm
10:49 5.6 °C 0.6 °C 1021.2 hPa NNE 11.6 km/h 16.1 km/h 70 % 0 mm
10:54 5.7 °C 0.3 °C 1021.2 hPa NNE 15 km/h 20.9 km/h 68 % 0 mm
10:59 5.6 °C -0.1 °C 1021.2 hPa NE 10.5 km/h 20.4 km/h 67 % 0 mm
11:04 5.5 °C -0.2 °C 1021.2 hPa NNE 9 km/h 18.5 km/h 67 % 0 mm
11:09 5.4 °C -0.2 °C 1021.2 hPa NNE 9.3 km/h 11.3 km/h 67 % 0 mm
11:14 5.4 °C -0.1 °C 1021.2 hPa NE 11.1 km/h 16.7 km/h 68 % 0 mm
11:19 5.6 °C -0.1 °C 1021.2 hPa ENE 10.1 km/h 16.7 km/h 67 % 0 mm
11:24 5.8 °C 0.3 °C 1021.2 hPa NNE 9.8 km/h 12.9 km/h 68 % 0 mm
11:29 6.1 °C 0.2 °C 1021.2 hPa NE 7.9 km/h 16.7 km/h 66 % 0 mm
11:34 6.4 °C 0.8 °C 1021.2 hPa NE 9.5 km/h 18.5 km/h 67 % 0 mm
11:39 6.7 °C 0.8 °C 1021.2 hPa NNE 10 km/h 20.4 km/h 66 % 0 mm
11:45 6.9 °C 0.8 °C 1021.2 hPa NE 9.5 km/h 18.5 km/h 65 % 0 mm
11:50 7.2 °C 0.8 °C 1021.2 hPa NNE 8.7 km/h 14.8 km/h 64 % 0 mm
11:55 7.4 °C 0.8 °C 1021.2 hPa NE 8.7 km/h 14.8 km/h 63 % 0 mm
12:00 7.6 °C 0.9 °C 1021.2 hPa NE 7.9 km/h 13 km/h 63 % 0 mm
12:05 7.7 °C 1.1 °C 1021.2 hPa ENE 6 km/h 13 km/h 63 % 0 mm
12:10 7.3 °C 0.7 °C 1021.2 hPa NNE 9 km/h 13 km/h 63 % 0 mm
12:15 7 °C 0 °C 1021.2 hPa ENE 12.4 km/h 18.5 km/h 61 % 0 mm
12:20 6.4 °C 0.3 °C 1021.2 hPa ENE 10.9 km/h 20.4 km/h 65 % 0 mm
12:25 6.3 °C 0.4 °C 1021.2 hPa ENE 6.6 km/h 11.3 km/h 66 % 0 mm
12:30 6.5 °C 0.8 °C 1021.2 hPa NNE 8.4 km/h 14.8 km/h 67 % 0 mm
12:35 6.8 °C 0.9 °C 1021.2 hPa NE 8.7 km/h 12.9 km/h 66 % 0 mm
12:40 7.2 °C 0.8 °C 1021.2 hPa NE 9.5 km/h 13 km/h 64 % 0 mm
12:45 7.3 °C 0.3 °C 1021.2 hPa NNE 8.4 km/h 20.4 km/h 61 % 0 mm
12:50 7.1 °C 0.6 °C 1020.9 hPa ENE 9.3 km/h 13 km/h 63 % 0 mm
12:55 7 °C 0.7 °C 1020.9 hPa ENE 7.2 km/h 11.1 km/h 64 % 0 mm
13:00 6.7 °C 0.2 °C 1020.9 hPa ENE 12.7 km/h 18.5 km/h 63 % 0 mm
13:05 6.3 °C -0.3 °C 1020.9 hPa NE 13.5 km/h 20.4 km/h 63 % 0 mm
13:10 6.1 °C -0.2 °C 1020.9 hPa ENE 14 km/h 18.5 km/h 64 % 0 mm
13:15 6.1 °C 0.2 °C 1020.9 hPa NE 12.2 km/h 22.2 km/h 66 % 0 mm
13:20 5.9 °C 0.1 °C 1020.5 hPa NE 13.8 km/h 18.5 km/h 66 % 0 mm
13:25 5.8 °C 0.2 °C 1020.5 hPa ENE 12.1 km/h 18.5 km/h 67 % 0 mm
13:31 5.8 °C 0.2 °C 1020.5 hPa ENE 11.4 km/h 18.5 km/h 67 % 0 mm
13:36 6 °C 0.1 °C 1020.5 hPa ENE 17.2 km/h 24.1 km/h 66 % 0 mm
13:41 5.8 °C -0.3 °C 1020.2 hPa NE 13.7 km/h 25.9 km/h 65 % 0 mm
13:46 5.7 °C 0.1 °C 1020.2 hPa ENE 15.4 km/h 22.2 km/h 67 % 0 mm
13:47 5.7 °C 0.1 °C 1020.2 hPa NE 14.6 km/h 22.2 km/h 67 % 0 mm
13:52 5.6 °C -0.1 °C 1020.2 hPa NE 14.5 km/h 18.5 km/h 67 % 0 mm
13:57 5.6 °C -0.1 °C 1019.9 hPa East 13.8 km/h 22.2 km/h 67 % 0 mm
14:02 5.7 °C 0.3 °C 1019.9 hPa ENE 11.9 km/h 22.2 km/h 68 % 0 mm
14:07 5.8 °C 0.6 °C 1019.9 hPa ENE 12.4 km/h 17.7 km/h 69 % 0 mm
14:12 5.9 °C 0.5 °C 1019.9 hPa ENE 12.6 km/h 20.4 km/h 68 % 0 mm
14:17 5.8 °C -0.1 °C 1019.9 hPa East 16.1 km/h 22.2 km/h 66 % 0 mm
14:22 5.8 °C -0.1 °C 1019.9 hPa ENE 12.9 km/h 18.5 km/h 66 % 0 mm
14:27 5.9 °C 0.2 °C 1019.5 hPa ENE 11.7 km/h 16.7 km/h 67 % 0 mm
14:32 5.9 °C 0.3 °C 1019.5 hPa ENE 13.4 km/h 20.4 km/h 67 % 0 mm
14:37 5.9 °C 0.3 °C 1019.5 hPa NE 11.7 km/h 18.5 km/h 67 % 0 mm
14:42 6 °C -0.1 °C 1019.5 hPa East 15.6 km/h 24.1 km/h 65 % 0 mm
14:47 5.8 °C -0.1 °C 1019.5 hPa East 14.2 km/h 18.5 km/h 66 % 0 mm
14:52 5.8 °C -0.2 °C 1019.5 hPa East 15.6 km/h 20.4 km/h 65 % 0 mm
14:57 5.8 °C 0.1 °C 1019.2 hPa ENE 13.4 km/h 22.2 km/h 67 % 0 mm
15:02 5.8 °C 0.2 °C 1019.2 hPa ENE 12.7 km/h 16.7 km/h 67 % 0 mm
15:07 5.8 °C -0.2 °C 1019.2 hPa ENE 15.8 km/h 20.4 km/h 65 % 0 mm
15:12 5.8 °C 0.2 °C 1019.2 hPa ENE 9.5 km/h 16.7 km/h 67 % 0 mm
15:17 5.9 °C -0.3 °C 1019.2 hPa ENE 11.7 km/h 18.5 km/h 64 % 0 mm
15:22 6.1 °C -0.1 °C 1019.2 hPa ENE 9.8 km/h 18.5 km/h 65 % 0 mm
15:27 6 °C -0.3 °C 1019.2 hPa ENE 7.4 km/h 13 km/h 64 % 0 mm
15:32 5.9 °C -0.4 °C 1019.2 hPa NE 11.1 km/h 18.5 km/h 64 % 0 mm
15:37 5.9 °C 0.1 °C 1018.8 hPa East 11.1 km/h 14.8 km/h 66 % 0 mm
15:42 6.1 °C 0.4 °C 1018.8 hPa ENE 10.8 km/h 14.8 km/h 67 % 0 mm
15:47 5.9 °C -0.2 °C 1018.8 hPa NE 16.1 km/h 22.2 km/h 65 % 0 mm
15:52 5.8 °C -0.1 °C 1018.8 hPa NE 10.8 km/h 14.8 km/h 66 % 0 mm
15:57 5.9 °C 0.1 °C 1018.5 hPa East 11.6 km/h 16.7 km/h 66 % 0 mm
16:03 5.9 °C 0.1 °C 1018.5 hPa East 9.8 km/h 14.8 km/h 66 % 0 mm
16:08 5.9 °C -0.2 °C 1018.5 hPa ENE 13.7 km/h 18.5 km/h 65 % 0 mm
16:13 5.8 °C -0.1 °C 1018.5 hPa ENE 7.9 km/h 16.7 km/h 66 % 0 mm
16:18 5.8 °C 0.2 °C 1018.5 hPa ENE 9.3 km/h 11.1 km/h 67 % 0 mm
16:23 5.9 °C -0.2 °C 1018.5 hPa ENE 9.7 km/h 16.7 km/h 65 % 0 mm
16:28 5.9 °C -0.2 °C 1018.5 hPa East 10.5 km/h 13 km/h 65 % 0 mm
16:33 5.9 °C 0 °C 1018.5 hPa ENE 11.3 km/h 14.5 km/h 66 % 0 mm
16:38 5.9 °C 0.4 °C 1018.5 hPa ENE 8 km/h 12.9 km/h 68 % 0 mm
16:43 5.9 °C 0.6 °C 1018.5 hPa East 6.6 km/h 11.3 km/h 69 % 0 mm
16:48 5.9 °C 0.4 °C 1018.5 hPa East 9.7 km/h 14.5 km/h 68 % 0 mm
16:53 5.8 °C -0.2 °C 1018.5 hPa East 8 km/h 16.1 km/h 65 % 0 mm
16:58 5.8 °C -0.1 °C 1018.5 hPa ENE 8.7 km/h 11.3 km/h 66 % 0 mm
17:03 5.7 °C -0.3 °C 1018.2 hPa East 7.9 km/h 11.3 km/h 65 % 0 mm
17:08 5.7 °C -0.2 °C 1018.2 hPa East 11.3 km/h 14.5 km/h 66 % 0 mm
17:13 5.6 °C -0.3 °C 1018.2 hPa East 8 km/h 14.5 km/h 66 % 0 mm
17:18 5.5 °C -0.3 °C 1018.2 hPa East 11.3 km/h 14.5 km/h 66 % 0 mm
17:23 5.4 °C -0.4 °C 1018.2 hPa ENE 11.3 km/h 12.9 km/h 66 % 0 mm
17:28 5.3 °C -0.3 °C 1018.2 hPa East 10 km/h 14.8 km/h 67 % 0 mm
17:33 5.3 °C -0.6 °C 1018.2 hPa East 9.7 km/h 14.5 km/h 66 % 0 mm
17:38 5.2 °C -0.7 °C 1018.2 hPa ESE 10.5 km/h 11.3 km/h 66 % 0 mm
17:43 5.1 °C -0.9 °C 1018.2 hPa East 10.6 km/h 14.8 km/h 65 % 0 mm
17:48 5.1 °C -0.8 °C 1018.2 hPa East 9.7 km/h 12.9 km/h 66 % 0 mm
17:53 5 °C -0.8 °C 1018.2 hPa East 9.7 km/h 16.1 km/h 66 % 0 mm
17:58 4.9 °C -0.7 °C 1018.2 hPa East 10.9 km/h 14.8 km/h 67 % 0 mm
18:03 4.8 °C -0.6 °C 1018.2 hPa East 10.1 km/h 13 km/h 68 % 0 mm
18:08 4.8 °C -0.6 °C 1018.2 hPa East 9 km/h 11.3 km/h 68 % 0 mm
18:13 4.7 °C -0.5 °C 1018.2 hPa East 8.5 km/h 12.9 km/h 69 % 0 mm
18:18 4.7 °C -0.7 °C 1018.2 hPa ENE 9 km/h 11.1 km/h 68 % 0 mm
18:23 4.6 °C -0.8 °C 1018.5 hPa East 7.6 km/h 11.1 km/h 68 % 0 mm
18:28 4.6 °C -0.8 °C 1018.5 hPa East 10.8 km/h 13 km/h 68 % 0 mm
18:33 4.4 °C -0.9 °C 1018.5 hPa East 7.6 km/h 11.1 km/h 68 % 0 mm
18:38 4.3 °C -0.8 °C 1018.5 hPa East 7.7 km/h 11.1 km/h 69 % 0 mm
18:43 4.3 °C -1.1 °C 1018.8 hPa East 6.6 km/h 9.3 km/h 68 % 0 mm
18:48 4.2 °C -1.2 °C 1018.5 hPa East 4.2 km/h 11.1 km/h 68 % 0 mm
18:53 4.2 °C -1.4 °C 1018.5 hPa East 3.7 km/h 7.4 km/h 67 % 0 mm
18:58 4.2 °C -1.6 °C 1018.8 hPa East 3.5 km/h 7.4 km/h 66 % 0 mm
19:03 4.1 °C -1.7 °C 1018.8 hPa East 1 km/h 3.2 km/h 66 % 0 mm
19:08 4.1 °C -1.5 °C 1018.8 hPa East 2.1 km/h 5.6 km/h 67 % 0 mm
19:13 4 °C -1.6 °C 1019.2 hPa Calm     67 % 0 mm
19:18 3.9 °C -1.6 °C 1019.2 hPa Calm     67 % 0 mm
19:23 3.9 °C -1.5 °C 1019.2 hPa Calm     68 % 0 mm
19:28 3.8 °C -1.6 °C 1019.2 hPa Calm     68 % 0 mm
19:33 3.8 °C -1.6 °C 1019.2 hPa Calm     68 % 0 mm
19:38 3.7 °C -1.5 °C 1019.2 hPa Calm   3.7 km/h 69 % 0 mm
19:43 3.6 °C -1.3 °C 1019.5 hPa Calm     70 % 0 mm
19:48 3.5 °C -1.3 °C 1019.5 hPa East 0.8 km/h 1.9 km/h 71 % 0 mm
19:53 3.4 °C -1.4 °C 1019.5 hPa Calm     71 % 0 mm
19:58 3.3 °C -1.5 °C 1019.5 hPa East 0.8 km/h 1.6 km/h 71 % 0 mm
20:03 3.2 °C -1.4 °C 1019.5 hPa East 0.6 km/h 3.7 km/h 72 % 0 mm
20:08 3 °C -1.4 °C 1019.5 hPa Calm   3.7 km/h 73 % 0 mm
20:14 2.9 °C -1.2 °C 1019.5 hPa Calm   3.7 km/h 74 % 0 mm
20:19 2.9 °C -1.3 °C 1019.9 hPa Calm     74 % 0 mm
20:24 2.8 °C -1.4 °C 1019.9 hPa Calm     74 % 0 mm
20:29 2.7 °C -1.4 °C 1019.9 hPa Calm     74 % 0 mm
20:34 2.7 °C -1.3 °C 1019.9 hPa Calm     75 % 0 mm
20:39 2.6 °C -1.4 °C 1019.9 hPa Calm   1.9 km/h 75 % 0 mm
20:44 2.4 °C -1.3 °C 1019.9 hPa Calm     76 % 0 mm
20:49 2.3 °C -1.4 °C 1019.9 hPa Calm   1.9 km/h 76 % 0 mm
20:54 2.2 °C -1.4 °C 1019.9 hPa Calm     77 % 0 mm
20:59 2.1 °C -1.5 °C 1019.9 hPa Calm   1.9 km/h 77 % 0 mm
21:04 2 °C -1.6 °C 1019.9 hPa Calm   1.9 km/h 77 % 0 mm
21:10 1.9 °C -1.5 °C 1019.9 hPa Calm     78 % 0 mm
21:15 1.8 °C -1.7 °C 1019.9 hPa ENE 1.6 km/h 3.7 km/h 78 % 0 mm
21:20 1.7 °C -1.6 °C 1019.9 hPa NNW 0.8 km/h 3.7 km/h 79 % 0 mm
21:25 1.6 °C -1.7 °C 1019.9 hPa NNW 0.2 km/h 1.9 km/h 79 % 0 mm
21:30 1.6 °C -1.7 °C 1019.9 hPa NNW 2.1 km/h 3.7 km/h 79 % 0 mm
21:35 1.4 °C -1.6 °C 1019.9 hPa NNW 1.1 km/h 3.7 km/h 80 % 0 mm
21:40 1.4 °C -1.7 °C 1019.5 hPa NNW 0.8 km/h 3.7 km/h 80 % 0 mm
21:45 1.3 °C -1.7 °C 1019.9 hPa NNW 1.4 km/h 3.7 km/h 80 % 0 mm
21:50 1.2 °C -1.8 °C 1019.5 hPa NNW 0.5 km/h 1.9 km/h 80 % 0 mm
21:55 1.2 °C -1.8 °C 1019.9 hPa Calm     80 % 0 mm
22:00 1.2 °C -1.9 °C 1019.5 hPa NNW 0.5 km/h 1.9 km/h 80 % 0 mm
22:05 1.2 °C -1.9 °C 1019.5 hPa NW 0.3 km/h 3.2 km/h 80 % 0 mm
22:10 1.1 °C -2.1 °C 1019.5 hPa NW 1.8 km/h 3.7 km/h 79 % 0 mm
22:15 1.1 °C -1.9 °C 1019.5 hPa NW 1.8 km/h 3.7 km/h 80 % 0 mm
22:20 1.2 °C -1.9 °C 1019.5 hPa Calm     80 % 0 mm
22:25 1.1 °C -1.9 °C 1019.5 hPa Calm   1.9 km/h 80 % 0 mm
22:30 1.1 °C -1.9 °C 1019.5 hPa Calm     80 % 0 mm
22:35 1.1 °C -2 °C 1019.5 hPa Calm     80 % 0 mm
22:40 1 °C -2.2 °C 1019.5 hPa Calm     79 % 0 mm
22:45 0.9 °C -2.2 °C 1019.5 hPa NW 0.5 km/h 3.7 km/h 80 % 0 mm
22:50 0.8 °C -2.3 °C 1019.5 hPa Calm     80 % 0 mm
22:55 0.7 °C -2.4 °C 1019.5 hPa Calm     80 % 0 mm
23:00 0.5 °C -2.6 °C 1019.5 hPa Calm   1.9 km/h 80 % 0 mm
23:05 0.3 °C -2.6 °C 1019.5 hPa Calm     81 % 0 mm
23:11 0.2 °C -2.7 °C 1019.2 hPa Calm   1.9 km/h 81 % 0 mm
23:15 0.1 °C -2.6 °C 1019.2 hPa Calm     82 % 0 mm
23:21 0.1 °C -2.8 °C 1019.2 hPa Calm     81 % 0 mm
23:26 0.1 °C -3 °C 1019.2 hPa NW 1.3 km/h 1.9 km/h 80 % 0 mm
23:31 0.1 °C -3.1 °C 1018.8 hPa NW 0.3 km/h 3.7 km/h 79 % 0 mm
23:36 0.2 °C -3.2 °C 1019.2 hPa NW 1.4 km/h 3.7 km/h 78 % 0 mm
23:41 0.3 °C -3.1 °C 1019.2 hPa NW 0.6 km/h 3.7 km/h 78 % 0 mm
23:46 0.4 °C -3 °C 1019.2 hPa Calm   1.9 km/h 78 % 0 mm
23:51 0.4 °C -2.9 °C 1018.8 hPa Calm     78 % 0 mm
23:56 0.5 °C -2.9 °C 1018.8 hPa NW 1.1 km/h 3.7 km/h 78 % 0 mm
Crab Meadow Weather
Compliments of Weather Underground - 3 mb

Script developed by  Jim McMurry - jmcmurry@mwt.net Adapted for the template by  Wim van der Kuil - Leuven-Template.eu

Recycling: We use over 80,000,000,000 aluminum soda cans every year.